sensor_id;sensor_type;location;lat;lon;timestamp;pressure;altitude;pressure_sealevel;temperature;humidity
34235;BME280;20500;49.856;20.290;2022-08-01T00:01:56;98623.95;;;16.58;83.18
34235;BME280;20500;49.856;20.290;2022-08-01T00:05:00;98624.45;;;16.60;83.16
34235;BME280;20500;49.856;20.290;2022-08-01T00:08:06;98622.36;;;16.62;83.13
34235;BME280;20500;49.856;20.290;2022-08-01T00:11:10;98623.84;;;16.64;83.05
34235;BME280;20500;49.856;20.290;2022-08-01T00:14:16;98622.78;;;16.65;83.18
34235;BME280;20500;49.856;20.290;2022-08-01T00:17:35;98623.71;;;16.61;83.19
34235;BME280;20500;49.856;20.290;2022-08-01T00:20:40;98620.81;;;16.57;83.21
34235;BME280;20500;49.856;20.290;2022-08-01T00:23:45;98618.11;;;16.52;83.33
34235;BME280;20500;49.856;20.290;2022-08-01T00:26:50;98618.04;;;16.52;83.34
34235;BME280;20500;49.856;20.290;2022-08-01T00:29:56;98614.91;;;16.55;83.28
34235;BME280;20500;49.856;20.290;2022-08-01T00:33:17;98615.55;;;16.55;83.31
34235;BME280;20500;49.856;20.290;2022-08-01T00:36:22;98609.83;;;16.56;83.31
34235;BME280;20500;49.856;20.290;2022-08-01T00:39:28;98614.23;;;16.56;83.25
34235;BME280;20500;49.856;20.290;2022-08-01T00:42:34;98610.05;;;16.54;83.18
34235;BME280;20500;49.856;20.290;2022-08-01T00:45:46;98614.48;;;16.55;83.15
34235;BME280;20500;49.856;20.290;2022-08-01T00:48:52;98621.22;;;16.54;83.08
34235;BME280;20500;49.856;20.290;2022-08-01T00:51:59;98620.19;;;16.55;83.24
34235;BME280;20500;49.856;20.290;2022-08-01T00:55:06;98619.89;;;16.56;83.19
34235;BME280;20500;49.856;20.290;2022-08-01T00:58:16;98618.56;;;16.57;83.36
34235;BME280;20500;49.856;20.290;2022-08-01T01:01:22;98621.23;;;16.59;83.22
34235;BME280;20500;49.856;20.290;2022-08-01T01:04:42;98621.77;;;16.61;83.19
34235;BME280;20500;49.856;20.290;2022-08-01T01:07:54;98623.44;;;16.61;83.22
34235;BME280;20500;49.856;20.290;2022-08-01T01:11:07;98624.77;;;16.59;83.18
34235;BME280;20500;49.856;20.290;2022-08-01T01:14:23;98626.23;;;16.53;83.09
34235;BME280;20500;49.856;20.290;2022-08-01T01:17:39;98622.25;;;16.54;83.33
34235;BME280;20500;49.856;20.290;2022-08-01T01:21:00;98623.77;;;16.56;83.25
34235;BME280;20500;49.856;20.290;2022-08-01T01:24:20;98623.33;;;16.56;83.19
34235;BME280;20500;49.856;20.290;2022-08-01T01:27:36;98620.88;;;16.58;83.37
34235;BME280;20500;49.856;20.290;2022-08-01T01:30:48;98621.95;;;16.57;83.23
34235;BME280;20500;49.856;20.290;2022-08-01T01:33:58;98620.38;;;16.57;83.32
34235;BME280;20500;49.856;20.290;2022-08-01T01:37:16;98620.11;;;16.56;83.22
34235;BME280;20500;49.856;20.290;2022-08-01T01:40:25;98622.13;;;16.55;83.35
34235;BME280;20500;49.856;20.290;2022-08-01T01:43:33;98623.29;;;16.54;83.35
34235;BME280;20500;49.856;20.290;2022-08-01T01:46:41;98622.60;;;16.55;83.26
34235;BME280;20500;49.856;20.290;2022-08-01T01:49:48;98628.55;;;16.57;83.25
34235;BME280;20500;49.856;20.290;2022-08-01T01:52:56;98625.58;;;16.55;83.24
34235;BME280;20500;49.856;20.290;2022-08-01T01:56:03;98626.30;;;16.50;83.11
34235;BME280;20500;49.856;20.290;2022-08-01T01:59:09;98632.01;;;16.44;83.08
34235;BME280;20500;49.856;20.290;2022-08-01T02:02:17;98635.56;;;16.43;83.19
34235;BME280;20500;49.856;20.290;2022-08-01T02:05:25;98632.30;;;16.44;83.44
34235;BME280;20500;49.856;20.290;2022-08-01T02:08:32;98629.20;;;16.45;83.32
34235;BME280;20500;49.856;20.290;2022-08-01T02:11:39;98628.91;;;16.45;83.30
34235;BME280;20500;49.856;20.290;2022-08-01T02:15:08;98620.05;;;16.44;83.30
34235;BME280;20500;49.856;20.290;2022-08-01T02:18:15;98625.34;;;16.43;83.41
34235;BME280;20500;49.856;20.290;2022-08-01T02:21:29;98621.14;;;16.45;83.32
34235;BME280;20500;49.856;20.290;2022-08-01T02:24:39;98620.92;;;16.46;83.15
34235;BME280;20500;49.856;20.290;2022-08-01T02:27:50;98621.59;;;16.46;83.20
34235;BME280;20500;49.856;20.290;2022-08-01T02:31:04;98625.96;;;16.45;83.26
34235;BME280;20500;49.856;20.290;2022-08-01T02:34:15;98627.44;;;16.45;82.98
34235;BME280;20500;49.856;20.290;2022-08-01T02:37:23;98631.07;;;16.44;83.15
34235;BME280;20500;49.856;20.290;2022-08-01T02:40:33;98631.38;;;16.43;83.09
34235;BME280;20500;49.856;20.290;2022-08-01T02:43:47;98631.11;;;16.41;83.07
34235;BME280;20500;49.856;20.290;2022-08-01T02:46:59;98637.16;;;16.41;83.19
34235;BME280;20500;49.856;20.290;2022-08-01T02:50:08;98635.80;;;16.40;83.00
34235;BME280;20500;49.856;20.290;2022-08-01T02:53:16;98638.30;;;16.37;83.04
34235;BME280;20500;49.856;20.290;2022-08-01T02:56:24;98638.45;;;16.35;83.06
34235;BME280;20500;49.856;20.290;2022-08-01T02:59:40;98636.52;;;16.35;82.97
34235;BME280;20500;49.856;20.290;2022-08-01T03:02:49;98638.08;;;16.31;82.99
34235;BME280;20500;49.856;20.290;2022-08-01T03:05:56;98636.71;;;16.29;83.00
34235;BME280;20500;49.856;20.290;2022-08-01T03:09:04;98633.38;;;16.28;82.99
34235;BME280;20500;49.856;20.290;2022-08-01T03:12:15;98633.75;;;16.26;83.04
34235;BME280;20500;49.856;20.290;2022-08-01T03:15:23;98631.86;;;16.24;82.91
34235;BME280;20500;49.856;20.290;2022-08-01T03:18:30;98631.48;;;16.22;82.88
34235;BME280;20500;49.856;20.290;2022-08-01T03:21:37;98635.50;;;16.20;82.86
34235;BME280;20500;49.856;20.290;2022-08-01T03:24:45;98639.15;;;16.20;82.80
34235;BME280;20500;49.856;20.290;2022-08-01T03:27:56;98639.25;;;16.12;82.87
34235;BME280;20500;49.856;20.290;2022-08-01T03:31:03;98641.83;;;16.10;82.94
34235;BME280;20500;49.856;20.290;2022-08-01T03:34:09;98648.73;;;16.11;82.83
34235;BME280;20500;49.856;20.290;2022-08-01T03:37:14;98647.20;;;16.09;82.96
34235;BME280;20500;49.856;20.290;2022-08-01T03:40:25;98650.03;;;16.09;82.88
34235;BME280;20500;49.856;20.290;2022-08-01T03:43:36;98647.36;;;16.07;82.91
34235;BME280;20500;49.856;20.290;2022-08-01T03:46:46;98650.45;;;16.06;82.80
34235;BME280;20500;49.856;20.290;2022-08-01T03:49:53;98654.38;;;16.07;82.97
34235;BME280;20500;49.856;20.290;2022-08-01T03:53:01;98656.27;;;16.07;82.95
34235;BME280;20500;49.856;20.290;2022-08-01T03:56:09;98661.09;;;16.07;82.96
34235;BME280;20500;49.856;20.290;2022-08-01T03:59:16;98661.77;;;16.05;82.80
34235;BME280;20500;49.856;20.290;2022-08-01T04:02:22;98668.54;;;16.06;82.86
34235;BME280;20500;49.856;20.290;2022-08-01T04:05:28;98669.88;;;16.07;82.81
34235;BME280;20500;49.856;20.290;2022-08-01T04:08:37;98671.84;;;16.05;82.74
34235;BME280;20500;49.856;20.290;2022-08-01T04:11:43;98671.84;;;16.01;82.74
34235;BME280;20500;49.856;20.290;2022-08-01T04:14:49;98672.66;;;15.95;82.73
34235;BME280;20500;49.856;20.290;2022-08-01T04:17:55;98672.02;;;15.94;82.73
34235;BME280;20500;49.856;20.290;2022-08-01T04:21:00;98679.80;;;15.95;82.84
34235;BME280;20500;49.856;20.290;2022-08-01T04:24:09;98683.15;;;15.93;82.93
34235;BME280;20500;49.856;20.290;2022-08-01T04:27:19;98683.74;;;15.93;82.86
34235;BME280;20500;49.856;20.290;2022-08-01T04:30:49;98683.36;;;15.93;82.82
34235;BME280;20500;49.856;20.290;2022-08-01T04:33:56;98680.18;;;15.90;82.69
34235;BME280;20500;49.856;20.290;2022-08-01T04:37:04;98677.48;;;15.84;82.70
34235;BME280;20500;49.856;20.290;2022-08-01T04:40:11;98675.17;;;15.84;82.76
34235;BME280;20500;49.856;20.290;2022-08-01T04:43:17;98674.63;;;15.84;82.87
34235;BME280;20500;49.856;20.290;2022-08-01T04:46:23;98678.26;;;15.88;82.87
34235;BME280;20500;49.856;20.290;2022-08-01T04:49:30;98675.79;;;15.91;82.76
34235;BME280;20500;49.856;20.290;2022-08-01T04:52:51;98677.98;;;15.95;82.88
34235;BME280;20500;49.856;20.290;2022-08-01T04:55:57;98680.20;;;15.97;82.83
34235;BME280;20500;49.856;20.290;2022-08-01T04:59:03;98679.94;;;15.97;82.82
34235;BME280;20500;49.856;20.290;2022-08-01T05:02:26;98678.95;;;15.99;82.79
34235;BME280;20500;49.856;20.290;2022-08-01T05:05:33;98676.34;;;15.98;82.73
34235;BME280;20500;49.856;20.290;2022-08-01T05:08:37;98676.62;;;15.95;82.83
34235;BME280;20500;49.856;20.290;2022-08-01T05:11:43;98680.46;;;16.00;83.30
34235;BME280;20500;49.856;20.290;2022-08-01T05:14:49;98684.66;;;16.07;83.38
34235;BME280;20500;49.856;20.290;2022-08-01T05:17:55;98688.59;;;16.26;83.94
34235;BME280;20500;49.856;20.290;2022-08-01T05:21:02;98689.04;;;16.45;84.22
34235;BME280;20500;49.856;20.290;2022-08-01T05:24:08;98690.58;;;16.84;84.82
34235;BME280;20500;49.856;20.290;2022-08-01T05:27:14;98690.14;;;17.27;84.50
34235;BME280;20500;49.856;20.290;2022-08-01T05:30:22;98691.57;;;17.65;84.28
34235;BME280;20500;49.856;20.290;2022-08-01T05:33:28;98693.95;;;17.99;83.71
34235;BME280;20500;49.856;20.290;2022-08-01T05:36:33;98697.42;;;18.13;82.90
34235;BME280;20500;49.856;20.290;2022-08-01T05:39:41;98695.96;;;18.21;83.05
34235;BME280;20500;49.856;20.290;2022-08-01T05:42:47;98697.94;;;18.46;83.22
34235;BME280;20500;49.856;20.290;2022-08-01T05:45:52;98700.39;;;18.80;83.40
34235;BME280;20500;49.856;20.290;2022-08-01T05:48:58;98698.48;;;19.20;82.98
34235;BME280;20500;49.856;20.290;2022-08-01T05:52:04;98699.42;;;19.56;82.68
34235;BME280;20500;49.856;20.290;2022-08-01T05:55:11;98699.38;;;19.88;82.53
34235;BME280;20500;49.856;20.290;2022-08-01T05:58:15;98701.96;;;20.22;82.30
34235;BME280;20500;49.856;20.290;2022-08-01T06:01:21;98703.56;;;20.45;81.72
34235;BME280;20500;49.856;20.290;2022-08-01T06:04:26;98703.61;;;20.70;81.44
34235;BME280;20500;49.856;20.290;2022-08-01T06:07:32;98704.73;;;20.91;81.03
34235;BME280;20500;49.856;20.290;2022-08-01T06:10:41;98706.54;;;21.08;80.81
34235;BME280;20500;49.856;20.290;2022-08-01T06:13:47;98707.56;;;21.15;80.08
34235;BME280;20500;49.856;20.290;2022-08-01T06:16:52;98710.77;;;21.14;80.29
34235;BME280;20500;49.856;20.290;2022-08-01T06:19:58;98712.86;;;21.24;79.85
34235;BME280;20500;49.856;20.290;2022-08-01T06:23:04;98711.18;;;21.45;80.05
34235;BME280;20500;49.856;20.290;2022-08-01T06:26:30;98707.88;;;21.65;79.54
34235;BME280;20500;49.856;20.290;2022-08-01T06:29:34;98704.98;;;21.89;79.52
34235;BME280;20500;49.856;20.290;2022-08-01T06:32:40;98705.20;;;22.09;78.60
34235;BME280;20500;49.856;20.290;2022-08-01T06:35:45;98705.89;;;22.25;78.84
34235;BME280;20500;49.856;20.290;2022-08-01T06:38:51;98708.64;;;22.47;78.58
34235;BME280;20500;49.856;20.290;2022-08-01T06:41:56;98707.92;;;22.69;78.15
34235;BME280;20500;49.856;20.290;2022-08-01T06:45:02;98710.59;;;22.90;77.68
34235;BME280;20500;49.856;20.290;2022-08-01T06:48:08;98711.63;;;23.10;77.10
34235;BME280;20500;49.856;20.290;2022-08-01T06:51:13;98714.66;;;23.21;76.77
34235;BME280;20500;49.856;20.290;2022-08-01T06:54:22;98717.59;;;23.33;76.38
34235;BME280;20500;49.856;20.290;2022-08-01T06:57:27;98715.39;;;23.46;75.87
34235;BME280;20500;49.856;20.290;2022-08-01T07:00:33;98714.08;;;23.56;75.53
34235;BME280;20500;49.856;20.290;2022-08-01T07:03:37;98716.67;;;23.69;75.14
34235;BME280;20500;49.856;20.290;2022-08-01T07:06:58;98716.52;;;23.86;74.67
34235;BME280;20500;49.856;20.290;2022-08-01T07:10:04;98716.23;;;24.03;74.41
34235;BME280;20500;49.856;20.290;2022-08-01T07:13:10;98707.60;;;24.22;74.28
34235;BME280;20500;49.856;20.290;2022-08-01T07:16:16;98707.19;;;24.36;73.52
34235;BME280;20500;49.856;20.290;2022-08-01T07:19:22;98703.15;;;24.43;73.33
34235;BME280;20500;49.856;20.290;2022-08-01T07:22:28;98703.90;;;24.53;72.78
34235;BME280;20500;49.856;20.290;2022-08-01T07:25:33;98706.32;;;24.63;72.54
34235;BME280;20500;49.856;20.290;2022-08-01T07:28:38;98707.58;;;24.73;71.71
34235;BME280;20500;49.856;20.290;2022-08-01T07:31:47;98707.86;;;24.86;71.59
34235;BME280;20500;49.856;20.290;2022-08-01T07:34:53;98705.52;;;24.99;71.07
34235;BME280;20500;49.856;20.290;2022-08-01T07:37:58;98707.85;;;25.01;70.50
34235;BME280;20500;49.856;20.290;2022-08-01T07:41:04;98707.05;;;25.09;70.25
34235;BME280;20500;49.856;20.290;2022-08-01T07:44:08;98707.95;;;25.22;69.75
34235;BME280;20500;49.856;20.290;2022-08-01T07:47:13;98708.66;;;25.36;69.33
34235;BME280;20500;49.856;20.290;2022-08-01T07:50:20;98710.45;;;25.51;69.03
34235;BME280;20500;49.856;20.290;2022-08-01T07:53:25;98709.68;;;25.58;68.40
34235;BME280;20500;49.856;20.290;2022-08-01T07:56:31;98708.40;;;25.49;67.86
34235;BME280;20500;49.856;20.290;2022-08-01T07:59:35;98711.01;;;25.54;67.78
34235;BME280;20500;49.856;20.290;2022-08-01T08:02:40;98703.45;;;25.63;67.36
34235;BME280;20500;49.856;20.290;2022-08-01T08:05:44;98699.19;;;25.74;67.09
34235;BME280;20500;49.856;20.290;2022-08-01T08:09:03;98697.27;;;25.89;66.53
34235;BME280;20500;49.856;20.290;2022-08-01T08:12:07;98695.39;;;25.99;66.31
34235;BME280;20500;49.856;20.290;2022-08-01T08:15:13;98698.73;;;26.07;65.62
34235;BME280;20500;49.856;20.290;2022-08-01T08:18:19;98702.03;;;26.05;65.25
34235;BME280;20500;49.856;20.290;2022-08-01T08:21:25;98706.38;;;26.12;65.06
34235;BME280;20500;49.856;20.290;2022-08-01T08:24:31;98704.89;;;26.28;64.43
34235;BME280;20500;49.856;20.290;2022-08-01T08:27:35;98704.55;;;26.40;64.09
34235;BME280;20500;49.856;20.290;2022-08-01T08:30:41;98702.56;;;26.43;63.47
34235;BME280;20500;49.856;20.290;2022-08-01T08:33:45;98702.82;;;26.47;63.48
34235;BME280;20500;49.856;20.290;2022-08-01T08:36:51;98703.86;;;26.55;63.08
34235;BME280;20500;49.856;20.290;2022-08-01T08:39:56;98706.45;;;26.64;62.53
34235;BME280;20500;49.856;20.290;2022-08-01T08:43:00;98699.02;;;26.74;62.34
34235;BME280;20500;49.856;20.290;2022-08-01T08:46:05;98700.38;;;26.81;61.55
34235;BME280;20500;49.856;20.290;2022-08-01T08:49:15;98703.30;;;26.81;61.23
34235;BME280;20500;49.856;20.290;2022-08-01T08:52:22;98710.74;;;26.79;60.95
34235;BME280;20500;49.856;20.290;2022-08-01T08:55:29;98708.92;;;26.77;60.93
34235;BME280;20500;49.856;20.290;2022-08-01T08:58:36;98708.36;;;26.83;60.22
34235;BME280;20500;49.856;20.290;2022-08-01T09:01:43;98701.95;;;26.81;60.09
34235;BME280;20500;49.856;20.290;2022-08-01T09:04:49;98706.96;;;26.87;59.97
34235;BME280;20500;49.856;20.290;2022-08-01T09:07:55;98708.97;;;26.92;59.51
34235;BME280;20500;49.856;20.290;2022-08-01T09:10:59;98707.93;;;26.95;59.35
34235;BME280;20500;49.856;20.290;2022-08-01T09:14:08;98708.77;;;26.85;58.42
34235;BME280;20500;49.856;20.290;2022-08-01T09:17:14;98706.45;;;26.74;58.32
34235;BME280;20500;49.856;20.290;2022-08-01T09:20:24;98707.73;;;26.58;57.68
34235;BME280;20500;49.856;20.290;2022-08-01T09:23:34;98708.41;;;26.16;57.11
34235;BME280;20500;49.856;20.290;2022-08-01T09:26:58;98705.24;;;26.08;57.36
34235;BME280;20500;49.856;20.290;2022-08-01T09:30:11;98706.02;;;26.20;57.17
34235;BME280;20500;49.856;20.290;2022-08-01T09:33:22;98706.63;;;26.34;56.75
34235;BME280;20500;49.856;20.290;2022-08-01T09:36:44;98707.71;;;26.31;56.13
34235;BME280;20500;49.856;20.290;2022-08-01T09:39:57;98705.08;;;26.39;55.48
34235;BME280;20500;49.856;20.290;2022-08-01T09:43:13;98706.09;;;26.52;55.68
34235;BME280;20500;49.856;20.290;2022-08-01T09:46:18;98702.60;;;26.54;55.07
34235;BME280;20500;49.856;20.290;2022-08-01T09:49:35;98706.51;;;26.58;55.02
34235;BME280;20500;49.856;20.290;2022-08-01T09:52:55;98705.62;;;26.58;54.76
34235;BME280;20500;49.856;20.290;2022-08-01T09:56:11;98705.90;;;26.63;54.52
34235;BME280;20500;49.856;20.290;2022-08-01T09:59:17;98705.38;;;26.61;54.13
34235;BME280;20500;49.856;20.290;2022-08-01T10:02:35;98707.76;;;26.52;53.88
34235;BME280;20500;49.856;20.290;2022-08-01T10:05:41;98711.08;;;26.61;53.88
34235;BME280;20500;49.856;20.290;2022-08-01T10:08:53;98707.15;;;26.65;53.30
34235;BME280;20500;49.856;20.290;2022-08-01T10:11:57;98706.98;;;26.76;53.38
34235;BME280;20500;49.856;20.290;2022-08-01T10:15:06;98714.49;;;26.93;53.18
34235;BME280;20500;49.856;20.290;2022-08-01T10:18:12;98708.35;;;26.97;52.88
34235;BME280;20500;49.856;20.290;2022-08-01T10:21:30;98702.99;;;27.02;52.68
34235;BME280;20500;49.856;20.290;2022-08-01T10:24:58;98706.63;;;27.05;52.54
34235;BME280;20500;49.856;20.290;2022-08-01T10:28:13;98702.52;;;27.03;52.30
34235;BME280;20500;49.856;20.290;2022-08-01T10:31:25;98700.52;;;27.12;52.28
34235;BME280;20500;49.856;20.290;2022-08-01T10:34:35;98705.63;;;27.27;51.98
34235;BME280;20500;49.856;20.290;2022-08-01T10:37:44;98703.55;;;27.37;51.96
34235;BME280;20500;49.856;20.290;2022-08-01T10:40:57;98702.95;;;27.44;51.80
34235;BME280;20500;49.856;20.290;2022-08-01T10:44:03;98699.33;;;27.61;51.63
34235;BME280;20500;49.856;20.290;2022-08-01T10:47:10;98700.82;;;27.82;51.33
34235;BME280;20500;49.856;20.290;2022-08-01T10:50:23;98700.20;;;27.92;51.05
34235;BME280;20500;49.856;20.290;2022-08-01T10:53:30;98698.94;;;27.94;50.81
34235;BME280;20500;49.856;20.290;2022-08-01T10:56:47;98701.16;;;27.99;50.52
34235;BME280;20500;49.856;20.290;2022-08-01T10:59:54;98695.86;;;28.05;49.98
34235;BME280;20500;49.856;20.290;2022-08-01T11:03:04;98696.70;;;28.05;50.08
34235;BME280;20500;49.856;20.290;2022-08-01T11:06:17;98691.15;;;28.11;49.53
34235;BME280;20500;49.856;20.290;2022-08-01T11:09:38;98689.08;;;28.05;48.96
34235;BME280;20500;49.856;20.290;2022-08-01T11:12:43;98687.34;;;28.06;49.17
34235;BME280;20500;49.856;20.290;2022-08-01T11:15:49;98686.45;;;28.08;49.15
34235;BME280;20500;49.856;20.290;2022-08-01T11:18:55;98685.25;;;28.16;48.85
34235;BME280;20500;49.856;20.290;2022-08-01T11:22:01;98686.07;;;28.20;48.87
34235;BME280;20500;49.856;20.290;2022-08-01T11:25:08;98680.71;;;28.28;48.88
34235;BME280;20500;49.856;20.290;2022-08-01T11:28:21;98684.44;;;28.26;48.60
34235;BME280;20500;49.856;20.290;2022-08-01T11:31:36;98685.21;;;28.27;48.59
34235;BME280;20500;49.856;20.290;2022-08-01T11:34:55;98680.92;;;28.39;48.59
34235;BME280;20500;49.856;20.290;2022-08-01T11:38:23;98681.29;;;28.59;48.31
34235;BME280;20500;49.856;20.290;2022-08-01T11:41:33;98680.13;;;28.63;47.86
34235;BME280;20500;49.856;20.290;2022-08-01T11:44:50;98683.73;;;28.68;48.16
34235;BME280;20500;49.856;20.290;2022-08-01T11:47:56;98681.00;;;28.82;48.18
34235;BME280;20500;49.856;20.290;2022-08-01T11:51:01;98674.54;;;28.93;47.68
34235;BME280;20500;49.856;20.290;2022-08-01T11:54:07;98674.33;;;28.89;47.35
34235;BME280;20500;49.856;20.290;2022-08-01T11:57:17;98676.95;;;28.79;46.87
34235;BME280;20500;49.856;20.290;2022-08-01T12:00:26;98671.83;;;28.58;47.13
34235;BME280;20500;49.856;20.290;2022-08-01T12:03:33;98674.89;;;28.62;47.28
34235;BME280;20500;49.856;20.290;2022-08-01T12:06:39;98675.72;;;28.69;46.94
34235;BME280;20500;49.856;20.290;2022-08-01T12:09:45;98677.61;;;28.58;46.80
34235;BME280;20500;49.856;20.290;2022-08-01T12:12:53;98676.09;;;28.61;46.52
34235;BME280;20500;49.856;20.290;2022-08-01T12:16:08;98673.08;;;28.58;46.33
34235;BME280;20500;49.856;20.290;2022-08-01T12:19:19;98672.84;;;28.53;46.16
34235;BME280;20500;49.856;20.290;2022-08-01T12:22:25;98673.71;;;28.62;46.39
34235;BME280;20500;49.856;20.290;2022-08-01T12:25:31;98677.31;;;28.68;46.33
34235;BME280;20500;49.856;20.290;2022-08-01T12:28:41;98675.91;;;28.56;45.72
34235;BME280;20500;49.856;20.290;2022-08-01T12:31:48;98678.06;;;28.36;45.79
34235;BME280;20500;49.856;20.290;2022-08-01T12:34:55;98678.65;;;28.26;45.97
34235;BME280;20500;49.856;20.290;2022-08-01T12:38:05;98681.09;;;28.20;45.79
34235;BME280;20500;49.856;20.290;2022-08-01T12:41:12;98676.93;;;28.08;46.02
34235;BME280;20500;49.856;20.290;2022-08-01T12:44:18;98677.30;;;27.94;46.19
34235;BME280;20500;49.856;20.290;2022-08-01T12:47:25;98677.73;;;27.84;46.25
34235;BME280;20500;49.856;20.290;2022-08-01T12:50:31;98677.52;;;27.80;46.39
34235;BME280;20500;49.856;20.290;2022-08-01T12:53:37;98672.65;;;27.77;46.02
34235;BME280;20500;49.856;20.290;2022-08-01T12:56:45;98669.59;;;27.74;46.13
34235;BME280;20500;49.856;20.290;2022-08-01T12:59:55;98670.39;;;27.75;45.82
34235;BME280;20500;49.856;20.290;2022-08-01T13:03:11;98666.96;;;27.80;45.80
34235;BME280;20500;49.856;20.290;2022-08-01T13:06:19;98665.02;;;27.79;45.73
34235;BME280;20500;49.856;20.290;2022-08-01T13:09:24;98659.38;;;27.74;45.45
34235;BME280;20500;49.856;20.290;2022-08-01T13:12:30;98659.58;;;27.64;45.25
34235;BME280;20500;49.856;20.290;2022-08-01T13:15:37;98657.55;;;27.55;45.05
34235;BME280;20500;49.856;20.290;2022-08-01T13:18:50;98655.40;;;27.48;45.01
34235;BME280;20500;49.856;20.290;2022-08-01T13:21:57;98644.98;;;27.46;44.57
34235;BME280;20500;49.856;20.290;2022-08-01T13:25:14;98642.39;;;27.44;44.63
34235;BME280;20500;49.856;20.290;2022-08-01T13:28:26;98641.59;;;27.45;44.80
34235;BME280;20500;49.856;20.290;2022-08-01T13:31:35;98644.58;;;27.44;44.80
34235;BME280;20500;49.856;20.290;2022-08-01T13:34:41;98649.38;;;27.37;44.64
34235;BME280;20500;49.856;20.290;2022-08-01T13:37:46;98646.73;;;27.34;44.84
34235;BME280;20500;49.856;20.290;2022-08-01T13:40:59;98642.52;;;27.38;44.82
34235;BME280;20500;49.856;20.290;2022-08-01T13:44:04;98638.98;;;27.39;44.90
34235;BME280;20500;49.856;20.290;2022-08-01T13:47:13;98645.64;;;27.36;45.10
34235;BME280;20500;49.856;20.290;2022-08-01T13:50:20;98650.55;;;27.34;45.44
34235;BME280;20500;49.856;20.290;2022-08-01T13:53:25;98653.77;;;27.23;45.09
34235;BME280;20500;49.856;20.290;2022-08-01T13:56:32;98655.79;;;27.13;45.08
34235;BME280;20500;49.856;20.290;2022-08-01T13:59:37;98664.56;;;27.08;44.96
34235;BME280;20500;49.856;20.290;2022-08-01T14:02:41;98666.68;;;27.04;44.98
34235;BME280;20500;49.856;20.290;2022-08-01T14:05:49;98667.30;;;27.04;45.37
34235;BME280;20500;49.856;20.290;2022-08-01T14:09:02;98670.78;;;26.98;45.40
34235;BME280;20500;49.856;20.290;2022-08-01T14:12:21;98672.50;;;26.87;45.39
34235;BME280;20500;49.856;20.290;2022-08-01T14:15:27;98674.93;;;26.84;45.68
34235;BME280;20500;49.856;20.290;2022-08-01T14:18:42;98680.19;;;26.92;45.98
34235;BME280;20500;49.856;20.290;2022-08-01T14:21:48;98682.23;;;26.95;45.84
34235;BME280;20500;49.856;20.290;2022-08-01T14:24:53;98676.77;;;26.95;45.88
34235;BME280;20500;49.856;20.290;2022-08-01T14:28:05;98677.04;;;26.99;46.12
34235;BME280;20500;49.856;20.290;2022-08-01T14:31:11;98680.69;;;27.06;45.96
34235;BME280;20500;49.856;20.290;2022-08-01T14:34:15;98684.05;;;27.05;45.71
34235;BME280;20500;49.856;20.290;2022-08-01T14:37:20;98689.20;;;26.96;45.84
34235;BME280;20500;49.856;20.290;2022-08-01T14:40:32;98690.44;;;26.91;46.17
34235;BME280;20500;49.856;20.290;2022-08-01T14:43:37;98692.40;;;26.90;46.04
34235;BME280;20500;49.856;20.290;2022-08-01T14:46:41;98688.92;;;26.87;46.06
34235;BME280;20500;49.856;20.290;2022-08-01T14:50:02;98686.24;;;26.82;46.23
34235;BME280;20500;49.856;20.290;2022-08-01T14:53:07;98690.27;;;26.68;46.11
34235;BME280;20500;49.856;20.290;2022-08-01T14:56:11;98689.02;;;26.59;46.23
34235;BME280;20500;49.856;20.290;2022-08-01T14:59:17;98691.61;;;26.53;45.96
34235;BME280;20500;49.856;20.290;2022-08-01T15:02:25;98691.30;;;26.43;46.46
34235;BME280;20500;49.856;20.290;2022-08-01T15:05:31;98692.59;;;26.37;46.44
34235;BME280;20500;49.856;20.290;2022-08-01T15:08:37;98690.77;;;26.33;46.43
34235;BME280;20500;49.856;20.290;2022-08-01T15:11:42;98690.16;;;26.28;46.54
34235;BME280;20500;49.856;20.290;2022-08-01T15:14:46;98691.48;;;26.24;46.74
34235;BME280;20500;49.856;20.290;2022-08-01T15:17:55;98693.88;;;26.18;46.78
34235;BME280;20500;49.856;20.290;2022-08-01T15:20:59;98693.95;;;26.16;46.91
34235;BME280;20500;49.856;20.290;2022-08-01T15:24:05;98692.76;;;26.13;46.99
34235;BME280;20500;49.856;20.290;2022-08-01T15:27:11;98692.19;;;26.08;46.94
34235;BME280;20500;49.856;20.290;2022-08-01T15:30:16;98695.31;;;26.04;46.92
34235;BME280;20500;49.856;20.290;2022-08-01T15:33:30;98692.62;;;26.04;47.05
34235;BME280;20500;49.856;20.290;2022-08-01T15:36:36;98694.14;;;26.01;46.97
34235;BME280;20500;49.856;20.290;2022-08-01T15:39:46;98690.33;;;25.99;47.00
34235;BME280;20500;49.856;20.290;2022-08-01T15:42:52;98689.13;;;25.95;46.94
34235;BME280;20500;49.856;20.290;2022-08-01T15:45:56;98684.02;;;25.91;46.96
34235;BME280;20500;49.856;20.290;2022-08-01T15:49:04;98681.10;;;25.88;47.33
34235;BME280;20500;49.856;20.290;2022-08-01T15:52:10;98685.05;;;25.84;47.42
34235;BME280;20500;49.856;20.290;2022-08-01T15:55:24;98683.70;;;25.82;47.39
34235;BME280;20500;49.856;20.290;2022-08-01T15:58:29;98685.69;;;25.79;47.54
34235;BME280;20500;49.856;20.290;2022-08-01T16:01:33;98678.73;;;25.74;47.63
34235;BME280;20500;49.856;20.290;2022-08-01T16:04:39;98683.70;;;25.66;48.05
34235;BME280;20500;49.856;20.290;2022-08-01T16:07:45;98687.31;;;25.60;48.06
34235;BME280;20500;49.856;20.290;2022-08-01T16:11:04;98682.25;;;25.51;48.17
34235;BME280;20500;49.856;20.290;2022-08-01T16:14:08;98688.09;;;25.44;48.38
34235;BME280;20500;49.856;20.290;2022-08-01T16:17:14;98687.42;;;25.36;48.81
34235;BME280;20500;49.856;20.290;2022-08-01T16:20:19;98685.25;;;25.26;48.58
34235;BME280;20500;49.856;20.290;2022-08-01T16:23:24;98687.12;;;25.18;48.63
34235;BME280;20500;49.856;20.290;2022-08-01T16:26:29;98685.71;;;25.09;48.69